createdAt,value
2022-08-25T00:00:50.775Z,99185.80
2022-08-25T00:03:26.723Z,99185.00
2022-08-25T00:06:03.030Z,99186.20
2022-08-25T00:08:42.139Z,99188.60
2022-08-25T00:11:22.905Z,99184.00
2022-08-25T00:14:06.076Z,99184.40
2022-08-25T00:16:43.500Z,99182.40
2022-08-25T00:19:23.838Z,99183.40
2022-08-25T00:22:00.837Z,99182.20
2022-08-25T00:24:38.224Z,99182.00
2022-08-25T00:27:14.228Z,99183.60
2022-08-25T00:29:50.672Z,99180.80
2022-08-25T00:32:27.182Z,99180.40
2022-08-25T00:35:03.869Z,99180.60
2022-08-25T00:37:39.761Z,99181.40
2022-08-25T00:40:17.094Z,99177.80
2022-08-25T00:42:54.617Z,99177.20
2022-08-25T00:45:31.685Z,99181.20
2022-08-25T00:48:08.576Z,99181.40
2022-08-25T00:50:44.538Z,99181.80
2022-08-25T00:53:21.289Z,99182.80
2022-08-25T00:55:57.906Z,99175.40
2022-08-25T00:58:37.758Z,99175.00
2022-08-25T01:01:15.192Z,99175.80
2022-08-25T01:03:51.593Z,99177.80
2022-08-25T01:06:28.577Z,99177.40
2022-08-25T01:09:04.751Z,99181.40
2022-08-25T01:11:41.621Z,99177.20
2022-08-25T01:14:22.166Z,99173.40
2022-08-25T01:16:59.430Z,99173.40
2022-08-25T01:19:35.944Z,99173.80
2022-08-25T01:22:12.609Z,99168.80
2022-08-25T01:24:57.687Z,99169.60
2022-08-25T01:27:33.796Z,99167.80
2022-08-25T01:30:12.756Z,99165.20
2022-08-25T01:32:49.518Z,99161.60
2022-08-25T01:35:25.705Z,99162.20
2022-08-25T01:38:02.785Z,99159.40
2022-08-25T01:40:41.066Z,99159.00
2022-08-25T01:43:39.335Z,99150.60
2022-08-25T01:46:15.415Z,99147.20
2022-08-25T01:48:51.761Z,99145.60
2022-08-25T01:51:35.334Z,99142.00
2022-08-25T01:54:11.723Z,99145.00
2022-08-25T01:56:48.046Z,99138.80
2022-08-25T01:59:25.562Z,99134.80
2022-08-25T02:02:01.540Z,99130.60
2022-08-25T02:04:44.307Z,99131.20
2022-08-25T02:07:21.599Z,99126.00
2022-08-25T02:09:58.771Z,99127.60
2022-08-25T02:12:37.750Z,99122.00
2022-08-25T02:15:15.656Z,99123.00
2022-08-25T02:17:51.848Z,99121.20
2022-08-25T02:20:29.026Z,99121.80
2022-08-25T02:23:05.456Z,99123.80
2022-08-25T02:25:42.986Z,99126.80
2022-08-25T02:28:20.030Z,99123.80
2022-08-25T02:31:01.226Z,99124.60
2022-08-25T02:33:38.246Z,99120.60
2022-08-25T02:36:14.876Z,99121.60
2022-08-25T02:38:51.405Z,99119.60
2022-08-25T02:41:31.622Z,99114.20
2022-08-25T02:44:10.064Z,99115.80
2022-08-25T02:46:46.002Z,99116.20
2022-08-25T02:49:22.034Z,99114.40
2022-08-25T02:51:59.346Z,99118.20
2022-08-25T02:54:35.607Z,99120.80
2022-08-25T02:57:13.589Z,99119.00
2022-08-25T02:59:50.139Z,99122.00
2022-08-25T03:02:26.523Z,99122.00
2022-08-25T03:05:02.677Z,99120.60
2022-08-25T03:07:39.890Z,99120.20
2022-08-25T03:10:22.108Z,99116.60
2022-08-25T03:12:58.108Z,99114.00
2022-08-25T03:15:37.820Z,99114.40
2022-08-25T03:18:14.247Z,99110.80
2022-08-25T03:20:50.548Z,99112.60
2022-08-25T03:23:27.100Z,99108.60
2022-08-25T03:26:29.605Z,99110.60
2022-08-25T03:29:07.234Z,99111.40
2022-08-25T03:31:44.953Z,99110.80
2022-08-25T03:34:23.927Z,99112.80
2022-08-25T03:37:00.921Z,99111.60
2022-08-25T03:39:37.118Z,99104.00
2022-08-25T03:42:13.632Z,99100.40
2022-08-25T03:44:49.569Z,99105.60
2022-08-25T03:47:26.687Z,99100.60
2022-08-25T03:50:02.682Z,99098.60
2022-08-25T03:52:42.445Z,99098.80
2022-08-25T03:55:19.649Z,99095.00
2022-08-25T03:57:56.750Z,99096.20
2022-08-25T04:00:32.792Z,99100.00
2022-08-25T04:03:09.145Z,99098.80
2022-08-25T04:05:46.125Z,99098.20
2022-08-25T04:08:22.623Z,99099.60
2022-08-25T04:10:58.649Z,99101.60
2022-08-25T04:13:34.658Z,99103.60
2022-08-25T04:16:19.030Z,99105.40
2022-08-25T04:18:57.124Z,99106.20
2022-08-25T04:21:34.961Z,99101.20
2022-08-25T04:24:14.249Z,99100.60
2022-08-25T04:26:53.840Z,99102.80
2022-08-25T04:29:30.430Z,99105.80
2022-08-25T04:32:07.144Z,99107.20
2022-08-25T04:34:43.618Z,99108.60
2022-08-25T04:37:19.950Z,99109.00
2022-08-25T04:39:55.935Z,99114.20
2022-08-25T04:42:32.283Z,99113.60
2022-08-25T04:45:10.537Z,99112.80
2022-08-25T04:47:46.610Z,99116.80
2022-08-25T04:50:22.762Z,99111.40
2022-08-25T04:52:59.250Z,99115.20
2022-08-25T04:55:40.813Z,99113.40
2022-08-25T04:58:16.697Z,99112.20
2022-08-25T05:00:52.891Z,99110.20
2022-08-25T05:03:28.974Z,99107.00
2022-08-25T05:06:06.267Z,99100.80
2022-08-25T05:08:42.515Z,99105.00
2022-08-25T05:11:23.617Z,99103.80
2022-08-25T05:14:03.091Z,99106.40
2022-08-25T05:16:39.762Z,99104.00
2022-08-25T05:19:16.157Z,99102.00
2022-08-25T05:21:52.456Z,99103.00
2022-08-25T05:24:29.726Z,99104.60
2022-08-25T05:27:06.601Z,99104.40
2022-08-25T05:29:42.664Z,99105.00
2022-08-25T05:32:18.617Z,99097.00
2022-08-25T05:34:54.885Z,99099.20
2022-08-25T05:37:30.880Z,99097.00
2022-08-25T05:40:09.408Z,99095.40
2022-08-25T05:42:45.538Z,99102.40
2022-08-25T05:45:22.508Z,99100.00
2022-08-25T05:47:58.892Z,99099.00
2022-08-25T05:50:34.827Z,99101.40
2022-08-25T05:53:10.680Z,99103.40
2022-08-25T05:55:50.773Z,99102.40
2022-08-25T05:58:28.961Z,99102.60
2022-08-25T06:01:19.558Z,99104.00
2022-08-25T06:03:55.967Z,99107.20
2022-08-25T06:06:32.346Z,99104.80
2022-08-25T06:09:10.601Z,99107.20
2022-08-25T06:11:46.751Z,99109.00
2022-08-25T06:14:23.369Z,99109.80
2022-08-25T06:17:00.505Z,99108.20
2022-08-25T06:19:37.114Z,99108.20
2022-08-25T06:22:15.992Z,99111.60
2022-08-25T06:24:58.651Z,99117.40
2022-08-25T06:27:35.424Z,99118.00
2022-08-25T06:30:19.357Z,99119.20
2022-08-25T06:33:00.450Z,99123.00
2022-08-25T06:35:37.105Z,99125.20
2022-08-25T06:38:15.075Z,99131.60
2022-08-25T06:40:53.749Z,99134.20
2022-08-25T06:43:29.683Z,99137.60
2022-08-25T06:46:15.819Z,99134.20
2022-08-25T06:48:52.631Z,99139.40
2022-08-25T06:51:30.152Z,99137.40
2022-08-25T06:54:08.107Z,99136.20
2022-08-25T06:56:46.694Z,99136.00
2022-08-25T06:59:25.712Z,99138.20
2022-08-25T07:02:11.805Z,99137.00
2022-08-25T07:04:48.197Z,99136.80
2022-08-25T07:07:24.152Z,99138.60
2022-08-25T07:10:00.207Z,99138.20
2022-08-25T07:12:36.226Z,99139.60
2022-08-25T07:15:20.459Z,99139.60
2022-08-25T07:17:58.951Z,99141.80
2022-08-25T07:20:36.938Z,99139.60
2022-08-25T07:23:13.015Z,99140.00
2022-08-25T07:25:49.912Z,99137.40
2022-08-25T07:28:26.896Z,99136.40
2022-08-25T07:31:02.927Z,99136.20
2022-08-25T07:34:01.548Z,99143.60
2022-08-25T07:36:38.252Z,99142.00
2022-08-25T07:39:17.636Z,99146.40
2022-08-25T07:41:59.043Z,99149.60
2022-08-25T07:44:35.252Z,99144.60
2022-08-25T07:47:11.399Z,99156.60
2022-08-25T07:49:47.265Z,99157.20
2022-08-25T07:52:23.436Z,99151.40
2022-08-25T07:54:59.682Z,99154.00
2022-08-25T07:57:36.684Z,99152.40
2022-08-25T08:00:17.862Z,99147.60
2022-08-25T08:02:55.065Z,99147.40
2022-08-25T08:05:32.026Z,99148.60
2022-08-25T08:08:08.281Z,99150.00
2022-08-25T08:13:42.597Z,99148.00
2022-08-25T08:16:21.699Z,99142.00
2022-08-25T08:18:58.948Z,99145.00
2022-08-25T08:21:37.953Z,99148.20
2022-08-25T08:24:25.085Z,99144.60
2022-08-25T08:27:08.591Z,99141.00
2022-08-25T08:29:46.014Z,99146.40
2022-08-25T08:32:25.186Z,99146.20
2022-08-25T08:35:15.578Z,99146.40
2022-08-25T08:37:52.551Z,99150.80
2022-08-25T08:40:32.393Z,99147.80
2022-08-25T08:43:20.885Z,99147.40
2022-08-25T08:45:57.313Z,99142.80
2022-08-25T08:48:53.331Z,99147.00
2022-08-25T08:51:40.456Z,99146.20
2022-08-25T08:54:25.247Z,99140.20
2022-08-25T08:57:15.498Z,99140.80
2022-08-25T09:00:01.252Z,99144.80
2022-08-25T09:02:51.649Z,99143.00
2022-08-25T09:05:35.789Z,99138.00
2022-08-25T09:08:20.176Z,99137.00
2022-08-25T09:11:10.479Z,99135.00
2022-08-25T09:14:13.210Z,99133.20
2022-08-25T09:17:06.187Z,99137.40
2022-08-25T09:20:22.297Z,99132.00
2022-08-25T09:23:20.611Z,99132.60
2022-08-25T09:26:20.149Z,99129.20
2022-08-25T09:29:06.459Z,99124.20
2022-08-25T09:31:55.405Z,99124.40
2022-08-25T09:34:36.907Z,99125.40
2022-08-25T09:37:12.973Z,99125.40
2022-08-25T09:39:49.840Z,99123.60
2022-08-25T09:42:50.251Z,99119.60
2022-08-25T09:45:43.754Z,99118.60
2022-08-25T09:48:40.843Z,99114.20
2022-08-25T09:51:27.738Z,99113.60
2022-08-25T09:54:10.567Z,99110.00
2022-08-25T09:56:57.723Z,99103.20
2022-08-25T09:59:37.837Z,99107.80
2022-08-25T10:02:31.204Z,99106.80
2022-08-25T10:05:25.134Z,99099.40
2022-08-25T10:08:14.647Z,99094.20
2022-08-25T10:10:57.546Z,99094.40
2022-08-25T10:13:46.856Z,99095.20
2022-08-25T10:16:36.486Z,99085.60
2022-08-25T10:19:24.695Z,99087.00
2022-08-25T10:22:27.373Z,99083.20
2022-08-25T10:25:05.054Z,99083.00
2022-08-25T10:27:53.853Z,99083.60
2022-08-25T10:30:46.460Z,99082.00
2022-08-25T10:33:40.455Z,99078.80
2022-08-25T10:36:30.241Z,99072.20
2022-08-25T10:39:34.649Z,99068.20
2022-08-25T10:42:25.973Z,99070.00
2022-08-25T10:45:41.655Z,99060.00
2022-08-25T10:48:53.808Z,99068.40
2022-08-25T10:51:57.633Z,99068.80
2022-08-25T10:54:51.340Z,99066.80
2022-08-25T10:57:52.818Z,99065.00
2022-08-25T11:00:38.362Z,99058.60
2022-08-25T11:03:44.667Z,99054.40
2022-08-25T11:06:29.531Z,99050.40
2022-08-25T11:09:14.157Z,99047.80
2022-08-25T11:11:57.746Z,99046.00
2022-08-25T11:14:41.664Z,99042.80
2022-08-25T11:17:25.410Z,99041.60
2022-08-25T11:20:16.341Z,99036.80
2022-08-25T11:23:18.609Z,99039.80
2022-08-25T11:26:01.889Z,99042.40
2022-08-25T11:28:53.759Z,99042.00
2022-08-25T11:31:31.044Z,99036.20
2022-08-25T11:34:09.920Z,99035.40
2022-08-25T11:36:54.066Z,99032.80
2022-08-25T11:39:59.369Z,99025.80
2022-08-25T11:42:55.962Z,99014.80
2022-08-25T11:46:12.802Z,99020.20
2022-08-25T11:49:13.547Z,99017.80
2022-08-25T11:51:53.722Z,99009.60
2022-08-25T11:54:36.724Z,99006.80
2022-08-25T11:57:26.412Z,99006.80
2022-08-25T12:00:36.410Z,99005.40
2022-08-25T12:03:53.568Z,99001.40
2022-08-25T12:06:36.933Z,98998.80
2022-08-25T12:09:26.756Z,99002.20
2022-08-25T12:12:32.886Z,98996.20
2022-08-25T12:15:27.250Z,98994.40
2022-08-25T12:18:45.958Z,98991.60
2022-08-25T12:21:38.525Z,98994.60
2022-08-25T12:24:25.796Z,98991.60
2022-08-25T12:27:09.578Z,98991.60
2022-08-25T12:29:51.832Z,98985.20
2022-08-25T12:33:02.997Z,98983.00
2022-08-25T12:35:57.048Z,98980.80
2022-08-25T12:38:50.891Z,98979.80
2022-08-25T12:41:33.730Z,98982.40
2022-08-25T12:44:41.551Z,98977.80
2022-08-25T12:47:34.044Z,98971.80
2022-08-25T12:50:40.410Z,98975.60
2022-08-25T12:53:31.851Z,98971.20
2022-08-25T12:56:20.004Z,98969.20
2022-08-25T12:59:18.338Z,98969.00
2022-08-25T13:02:39.977Z,98965.60
2022-08-25T13:06:14.061Z,98966.00
2022-08-25T13:09:34.595Z,98956.00
2022-08-25T13:12:23.507Z,98957.40
2022-08-25T13:15:01.508Z,98955.80
2022-08-25T13:17:39.765Z,98954.60
2022-08-25T13:20:29.259Z,98951.80
2022-08-25T13:23:05.624Z,98953.80
2022-08-25T13:25:52.135Z,98954.00
2022-08-25T13:28:34.827Z,98953.80
2022-08-25T13:31:22.282Z,98952.60
2022-08-25T13:34:03.042Z,98954.80
2022-08-25T13:37:06.561Z,98956.00
2022-08-25T13:39:56.484Z,98953.40
2022-08-25T13:42:36.583Z,98953.00
2022-08-25T13:45:19.766Z,98953.80
2022-08-25T13:47:58.104Z,98956.60
2022-08-25T13:50:41.153Z,98957.40
2022-08-25T13:53:30.384Z,98956.40
2022-08-25T13:56:08.855Z,98953.20
2022-08-25T13:58:48.298Z,98950.00
2022-08-25T14:01:48.043Z,98949.40
2022-08-25T14:04:50.740Z,98952.80
2022-08-25T14:07:35.398Z,98938.60
2022-08-25T14:10:35.372Z,98937.00
2022-08-25T14:13:32.049Z,98932.20
2022-08-25T14:16:23.308Z,98932.20
2022-08-25T14:19:04.533Z,98926.40
2022-08-25T14:21:42.127Z,98924.40
2022-08-25T14:24:24.396Z,98924.60
2022-08-25T14:27:00.624Z,98923.40
2022-08-25T14:29:41.095Z,98923.40
2022-08-25T14:32:19.180Z,98920.60
2022-08-25T14:34:55.346Z,98920.00
2022-08-25T14:37:32.522Z,98919.00
2022-08-25T14:40:14.139Z,98914.00
2022-08-25T14:42:51.317Z,98911.20
2022-08-25T14:45:27.757Z,98911.80
2022-08-25T14:48:11.782Z,98910.20
2022-08-25T14:50:49.218Z,98913.40
2022-08-25T14:53:27.890Z,98913.60
2022-08-25T14:56:09.185Z,98916.20
2022-08-25T14:58:50.904Z,98916.80
2022-08-25T15:01:30.089Z,98910.80
2022-08-25T15:04:15.667Z,98914.20
2022-08-25T15:06:57.695Z,98909.80
2022-08-25T15:09:34.189Z,98907.20
2022-08-25T15:12:12.559Z,98909.00
2022-08-25T15:14:53.804Z,98911.20
2022-08-25T15:17:30.290Z,98908.20
2022-08-25T15:20:08.763Z,98909.40
2022-08-25T15:22:48.263Z,98907.20
2022-08-25T15:25:24.710Z,98905.60
2022-08-25T15:28:01.185Z,98904.00
2022-08-25T15:30:37.857Z,98899.60
2022-08-25T15:33:14.319Z,98905.60
2022-08-25T15:35:50.200Z,98904.20
2022-08-25T15:38:27.806Z,98903.60
2022-08-25T15:41:05.189Z,98904.60
2022-08-25T15:43:43.350Z,98909.80
2022-08-25T15:46:23.929Z,98905.00
2022-08-25T15:49:00.623Z,98905.60
2022-08-25T15:51:37.277Z,98903.80
2022-08-25T15:54:14.457Z,98901.00
2022-08-25T15:56:50.743Z,98902.00
2022-08-25T15:59:28.209Z,98901.40
2022-08-25T16:02:04.696Z,98896.20
2022-08-25T16:04:53.275Z,98897.60
2022-08-25T16:07:29.539Z,98893.40
2022-08-25T16:10:07.484Z,98891.60
2022-08-25T16:12:43.752Z,98890.80
2022-08-25T16:15:23.936Z,98895.80
2022-08-25T16:18:01.447Z,98895.80
2022-08-25T16:20:46.693Z,98898.40
2022-08-25T16:23:25.604Z,98895.20
2022-08-25T16:26:04.669Z,98892.80
2022-08-25T16:28:43.931Z,98886.20
2022-08-25T16:31:22.231Z,98887.80
2022-08-25T16:33:59.245Z,98888.80
2022-08-25T16:36:35.714Z,98891.00
2022-08-25T16:39:12.531Z,98892.80
2022-08-25T16:41:51.309Z,98890.40
2022-08-25T16:44:27.494Z,98886.80
2022-08-25T16:47:04.406Z,98883.60
2022-08-25T16:49:45.414Z,98887.20
2022-08-25T16:52:39.035Z,98889.80
2022-08-25T16:55:17.141Z,98888.80
2022-08-25T16:57:59.992Z,98887.40
2022-08-25T17:00:38.903Z,98892.80
2022-08-25T17:03:15.938Z,98895.60
2022-08-25T17:05:52.097Z,98894.00
2022-08-25T17:08:31.120Z,98895.20
2022-08-25T17:11:15.091Z,98899.00
2022-08-25T17:13:55.753Z,98899.80
2022-08-25T17:16:35.973Z,98900.00
2022-08-25T17:19:15.170Z,98901.00
2022-08-25T17:21:51.392Z,98900.20
2022-08-25T17:24:29.326Z,98892.00
2022-08-25T17:27:08.178Z,98894.40
2022-08-25T17:29:44.161Z,98898.40
2022-08-25T17:32:20.207Z,98893.60
2022-08-25T17:34:56.153Z,98894.80
2022-08-25T17:37:32.159Z,98892.40
2022-08-25T17:40:11.041Z,98893.20
2022-08-25T17:42:47.068Z,98898.60
2022-08-25T17:45:23.371Z,98899.00
2022-08-25T17:48:00.401Z,98896.60
2022-08-25T17:50:37.271Z,98898.40
2022-08-25T17:53:17.350Z,98899.20
2022-08-25T17:56:02.823Z,98893.00
2022-08-25T17:58:39.613Z,98893.80
2022-08-25T18:01:46.365Z,98891.00
2022-08-25T18:04:23.888Z,98885.60
2022-08-25T18:07:03.656Z,98887.00
2022-08-25T18:09:40.032Z,98886.60
2022-08-25T18:12:17.706Z,98888.00
2022-08-25T18:14:56.926Z,98887.60
2022-08-25T18:17:35.744Z,98892.00
2022-08-25T18:20:16.373Z,98887.00
2022-08-25T18:22:55.181Z,98892.40
2022-08-25T18:25:35.316Z,98893.60
2022-08-25T18:28:12.072Z,98895.60
2022-08-25T18:30:48.478Z,98895.00
2022-08-25T18:33:25.793Z,98898.00
2022-08-25T18:36:07.237Z,98893.60
2022-08-25T18:39:01.526Z,98894.80
2022-08-25T18:41:45.034Z,98892.00
2022-08-25T18:44:21.798Z,98894.00
2022-08-25T18:46:58.624Z,98893.80
2022-08-25T18:49:35.196Z,98894.40
2022-08-25T18:52:11.816Z,98898.20
2022-08-25T18:54:48.126Z,98894.20
2022-08-25T18:57:24.567Z,98893.20
2022-08-25T19:00:02.260Z,98891.40
2022-08-25T19:02:38.777Z,98895.40
2022-08-25T19:05:26.998Z,98893.60
2022-08-25T19:08:05.947Z,98887.80
2022-08-25T19:10:44.069Z,98888.00
2022-08-25T19:13:22.542Z,98889.20
2022-08-25T19:15:59.599Z,98890.20
2022-08-25T19:18:39.135Z,98888.60
2022-08-25T19:21:15.817Z,98885.20
2022-08-25T19:23:53.254Z,98883.00
2022-08-25T19:26:30.687Z,98879.40
2022-08-25T19:29:10.692Z,98876.00
2022-08-25T19:31:50.540Z,98875.40
2022-08-25T19:34:35.087Z,98879.00
2022-08-25T19:37:13.290Z,98879.60
2022-08-25T19:39:54.040Z,98880.60
2022-08-25T19:42:37.110Z,98879.60
2022-08-25T19:45:16.450Z,98882.40
2022-08-25T19:47:54.349Z,98875.40
2022-08-25T19:50:32.880Z,98878.20
2022-08-25T19:53:10.244Z,98879.60
2022-08-25T19:55:49.527Z,98878.40
2022-08-25T19:58:25.830Z,98881.20
2022-08-25T20:01:02.180Z,98881.20
2022-08-25T20:03:39.878Z,98882.80
2022-08-25T20:06:16.328Z,98884.20
2022-08-25T20:08:58.984Z,98885.40
2022-08-25T20:11:38.061Z,98885.00
2022-08-25T20:14:15.537Z,98886.40
2022-08-25T20:16:51.694Z,98885.20
2022-08-25T20:19:27.999Z,98886.80
2022-08-25T20:22:04.142Z,98885.60
2022-08-25T20:24:55.876Z,98888.20
2022-08-25T20:27:39.992Z,98888.20
2022-08-25T20:30:22.212Z,98885.00
2022-08-25T20:33:01.357Z,98889.60
2022-08-25T20:35:38.136Z,98886.40
2022-08-25T20:38:15.079Z,98886.00
2022-08-25T20:40:51.532Z,98886.20
2022-08-25T20:43:29.665Z,98890.60
2022-08-25T20:46:09.053Z,98889.20
2022-08-25T20:48:45.671Z,98892.80
2022-08-25T20:51:23.473Z,98893.40
2022-08-25T20:53:59.858Z,98888.00
2022-08-25T20:56:36.212Z,98888.40
2022-08-25T20:59:12.927Z,98889.60
2022-08-25T21:01:49.746Z,98890.60
2022-08-25T21:04:30.407Z,98891.40
2022-08-25T21:07:07.677Z,98891.60
2022-08-25T21:09:45.788Z,98890.20
2022-08-25T21:12:22.371Z,98889.20
2022-08-25T21:14:58.530Z,98891.80
2022-08-25T21:17:34.890Z,98890.80
2022-08-25T21:20:13.366Z,98890.20
2022-08-25T21:22:49.301Z,98892.60
2022-08-25T21:25:26.661Z,98887.00
2022-08-25T21:28:02.688Z,98886.40
2022-08-25T21:30:44.703Z,98886.80
2022-08-25T21:33:26.393Z,98884.00
2022-08-25T21:36:05.599Z,98885.60
2022-08-25T21:38:42.306Z,98888.60
2022-08-25T21:41:23.579Z,98887.80
2022-08-25T21:44:01.447Z,98886.60
2022-08-25T21:46:39.705Z,98885.40
2022-08-25T21:49:16.244Z,98882.80
2022-08-25T21:52:02.381Z,98881.80
2022-08-25T21:54:40.623Z,98878.60
2022-08-25T21:57:19.168Z,98878.20
2022-08-25T21:59:59.953Z,98875.00
2022-08-25T22:02:37.045Z,98874.20
2022-08-25T22:05:15.440Z,98877.20
2022-08-25T22:07:54.190Z,98872.20
2022-08-25T22:10:30.547Z,98871.80
2022-08-25T22:13:06.875Z,98870.20
2022-08-25T22:15:42.840Z,98872.40
2022-08-25T22:18:18.670Z,98870.00
2022-08-25T22:20:55.203Z,98872.40
2022-08-25T22:23:32.307Z,98877.20
2022-08-25T22:26:17.162Z,98871.40
2022-08-25T22:28:59.360Z,98876.00
2022-08-25T22:31:37.129Z,98868.40
2022-08-25T22:34:13.965Z,98868.40
2022-08-25T22:36:50.862Z,98866.40
2022-08-25T22:39:36.489Z,98864.00
2022-08-25T22:42:16.265Z,98864.60
2022-08-25T22:44:54.080Z,98861.80
2022-08-25T22:47:29.987Z,98859.20
2022-08-25T22:50:07.307Z,98860.80
2022-08-25T22:52:43.214Z,98858.60
2022-08-25T22:55:22.318Z,98855.20
2022-08-25T22:57:58.628Z,98854.80
2022-08-25T23:00:34.774Z,98851.20
2022-08-25T23:03:11.936Z,98840.60
2022-08-25T23:05:48.267Z,98838.60
2022-08-25T23:08:38.873Z,98837.40
2022-08-25T23:11:18.243Z,98836.20
2022-08-25T23:13:57.074Z,98831.00
2022-08-25T23:16:34.062Z,98831.40
2022-08-25T23:19:13.770Z,98830.60
2022-08-25T23:22:07.573Z,98832.60
2022-08-25T23:24:48.626Z,98830.20
2022-08-25T23:27:25.823Z,98827.60
2022-08-25T23:30:01.835Z,98828.00
2022-08-25T23:32:37.899Z,98828.00
2022-08-25T23:35:14.967Z,98831.60
2022-08-25T23:37:51.499Z,98830.40
2022-08-25T23:40:28.663Z,98830.80
2022-08-25T23:43:04.914Z,98825.20
2022-08-25T23:45:41.215Z,98821.60
2022-08-25T23:48:18.809Z,98818.80
2022-08-25T23:50:55.022Z,98816.20
2022-08-25T23:53:31.821Z,98815.60
2022-08-25T23:56:08.864Z,98814.80
2022-08-25T23:58:45.536Z,98814.60
